Loisir ou Compétition : Rejoignez un Club de la Fédération

Résultats

SAMSE NATIONAL TOUR tmp2 /CF U17 tmp1

LES TUFFES

SPR Dames

Jury de Compétition

Délégué Technique :
BAVEREL BRICE (MJ)
D.T. Adjoint :
GRANDCLEMENT YVES (MJ)
Dir. Epreuve :
LEYDER CECILE (MJ)
Chef Pas de Tir :
 

Caractéristiques de la Piste

Piste :
 
Distance :
6,0 km
Point Haut :
 
Point Bas :
 
Montée Tot. :
 
Montée Max. :
 
Homologation :
 

Pénalité Appliquée :
90.0000
Coefficient :
800

Catégorie :
U17
Style :
 
Type de Tir :
[C-D] .
Clt Dos Clt/Cat Code An Nom Prénom Com Club Temps Pena Tps Tot Ecart Points
Classés
1 75 1/U17 FFS2690476 2005 GALMACE PAULIN VOLDIYA MB VILLARD/BOEG 19:33.7 1-2- - 19:33.7 00.0 90.00
2 106 2/U17 FFS2681492 2006 DUSSERRE ALICE DA CS VILLARD 21:33.2 0-2- - 21:33.2 +1:59.5 171.45
3 72 3/U17 FFS2681415 2006 PERRIN CORALIE SA CS LA FECLAZ 21:44.4 1-0- - 21:44.4 +2:10.7 179.09
4 113 4/U17 FFS2684409 2006 MORETTI LENA DA CS VILLARD 21:46.7 0-1- - 21:46.7 +2:13.0 180.65
5 125 5/U17 FFS2670330 2005 FOULON JUSTINE DA CS VILLARD 21:51.1 1-2- - 21:51.1 +2:17.4 183.65
6 119 6/U17 FFS2671163 2006 MISSILLIER CHLOE MB SC GD BORNAN 21:56.6 0-3- - 21:56.6 +2:22.9 187.40
7 114 7/U17 FFS2686685 2005 DUPONT BALLET BAZ LOU ANN MB CS LA CLUSAZ 21:57.4 2-4- - 21:57.4 +2:23.7 187.95
8 79 8/U17 FFS2675909 2005 GIUNTA CHARLOTTE SA SC MENUIRES 22:07.6 2-0- - 22:07.6 +2:33.9 194.90
9 96 9/U17 FFS2686218 2006 CANDAU ARMAND NAMOU SA BAUGES S.N 22:10.8 2-0- - 22:10.8 +2:37.1 197.08
10 93 10/U17 FFS2693353 2006 OUSTRY EMMA MB CS CHAMONIX 22:23.4 2-3- - 22:23.4 +2:49.7 205.67
11 108 11/U17 FFS2670610 2006 JACOB JULIANE MV BASS/RUPT SN 22:24.9 0-2- - 22:24.9 +2:51.2 206.69
12 109 12/U17 FFS2664946 2005 FONTAINE THEMICE SA CS SAISIES 22:39.4 2-1- - 22:39.4 +3:05.7 216.57
13 97 13/U17 FFS2701917 2005 BECK LILI SA CS LA FECLAZ 22:40.1 4-3- - 22:40.1 +3:06.4 217.05
14 73 14/U17 FFS2676140 2005 DODE LILY DA SNO 22:55.1 4-3- - 22:55.1 +3:21.4 227.28
15 122 15/U17 FFS2676072 2006 BREYTON BOUVIER LIV DA SN CHARTROUS 23:08.2 1-1- - 23:08.2 +3:34.5 236.20
16 89 16/U17 FFS2681305 2005 FAVRE CHLOE MB DRAGONS ANNY 23:08.5 2-1- - 23:08.5 +3:34.8 236.41
17 90 17/U17 FFS2686334 2006 PIC CALINE DA SNB CHAMROUS 23:10.9 2-3- - 23:10.9 +3:37.2 238.04
18 92 18/U17 FFS2683518 2005 DEBLOEM MARINE LY SC LOMPNES 23:13.0 2-0- - 23:13.0 +3:39.3 239.48
19 95 19/U17 FFS2692251 2006 ORVAIN CHLOE MB SCNP ROCHOIS 23:22.1 2-1- - 23:22.1 +3:48.4 245.68
20 123 20/U17 FFS2687431 2005 BLANC LAURYNE SA SC ARECHES 23:31.8 1-1- - 23:31.8 +3:58.1 252.29
21 128 21/U17 FFS2692223 2006 CART LAMY LISA MJ BOIS D'AMONT 23:34.9 3-1- - 23:34.9 +4:01.2 254.40
22 111 22/U17 FFS2681398 2006 AMBERT MILA SA CS LA FECLAZ 23:47.5 2-0- - 23:47.5 +4:13.8 262.99
23 82 23/U17 FFS2691595 2006 BOUILLET LOUNA MJ SC GRANDVAUX 23:50.8 2-2- - 23:50.8 +4:17.1 265.24
24 112 24/U17 FFS2694212 2005 JEANTET MAE MJ SC MOUTHE 23:51.1 1-2- - 23:51.1 +4:17.4 265.45
25 80 25/U17 FFS2696559 2006 GILLET LUCIE MJ CSR PONTARLI 24:04.6 3-4- - 24:04.6 +4:30.9 274.65
26 103 26/U17 FFS2666247 2005 CORREIA MAELA MV LA BRESSAUDE 24:06.1 3-2- - 24:06.1 +4:32.4 275.67
27 102 27/U17 FFS2686851 2005 BENED JUSTINE MB CHABLAIS NOR 24:09.6 0-2- - 24:09.6 +4:35.9 278.05
28 126 28/U17 FFS2674383 2006 BUGEAUD LOLA MB CS MEGEVE 24:18.0 2-4- - 24:18.0 +4:44.3 283.78
29 107 29/U17 FFS2696668 2006 BOURGON JEANNE MJ SC VERRIERES 24:21.6 0-3- - 24:21.6 +4:47.9 286.23
30 99 30/U17 FFS2697246 2006 VION TIFENN MB VILLARD/BOEG 24:22.4 1-1- - 24:22.4 +4:48.7 286.78
31 81 31/U17 FFS2677957 2006 LEJEUNE JUSTINE MV BASS/RUPT SN 24:26.8 0-1- - 24:26.8 +4:53.1 289.78
32 71 32/U17 FFS2664204 2005 LOOSEN LEA SA CS SAISIES 24:30.3 1-1- - 24:30.3 +4:56.6 292.16
33 87 33/U17 FFS2665480 2006 GRAVIER MARION SA CS VAL CENIS 24:31.6 1-4- - 24:31.6 +4:57.9 293.05
34 78 34/U17 FFS2674768 2006 GLEYZOLLE THAIS DA US AUTRANNAI 24:37.9 1-3- - 24:37.9 +5:04.2 297.34
35 105 35/U17 FFS2681403 2006 CHEVRIER CLOTILDE SA CS LA FECLAZ 24:59.1 2-1- - 24:59.1 +5:25.4 311.79
36 86 36/U17 FFS2673399 2006 PAYOT LOLA MB CS CHAMONIX 25:11.9 2-3- - 25:11.9 +5:38.2 320.52
37 104 37/U17 FFS2691551 2006 BOIS LOUISON MB SC CONTAMINE 25:19.0 2-4- - 25:19.0 +5:45.3 325.36
38 74 38/U17 FFS2687284 2005 BOUVERET ELISA MJ SC GRANDVAUX 25:20.2 2-2- - 25:20.2 +5:46.5 326.18
39 127 39/U17 FFS2697967 2006 ROY ZELIE MJ ES SAUGETTE 25:20.8 5-4- - 25:20.8 +5:47.1 326.59
40 100 40/U17 FFS2667753 2006 DESMARTIN CHARLINE MB SC D'AGY 25:24.1 1-2- - 25:24.1 +5:50.4 328.83
41 110 41/U17 FFS2660240 2005 VINCENT CHLOE MJ PREMANON SC 25:27.8 4-2- - 25:27.8 +5:54.1 331.36
42 118 42/U17 FFS2675613 2006 THIEVENT LIV DA SN CHARTROUS 25:35.6 3-4- - 25:35.6 +6:01.9 336.67
43 83 43/U17 FFS2681409 2006 COURTIEU TORI SA CS LA FECLAZ 25:40.1 2-5- - 25:40.1 +6:06.4 339.74
44 120 44/U17 FFS2686215 2006 COMAS DE MIRANDA LISON SA BAUGES S.N 25:46.0 3-3- - 25:46.0 +6:12.3 343.76
45 88 45/U17 FFS2689652 2006 FINE SOLENE SA CS LA FECLAZ 25:50.4 3-4- - 25:50.4 +6:16.7 346.76
46 85 46/U17 FFS2687130 2006 LONCHAMPT LISON MJ PREMANON SC 26:10.0 2-3- - 26:10.0 +6:36.3 360.12
47 91 47/U17 FFS2701070 2005 FISCHER CAPUCINE MV MOLSHEIM SN 26:48.6 2-1- - 26:48.6 +7:14.9 386.43
48 84 48/U17 FFS2701778 2006 BOURGEOIS ARMURIER ISALIN MJ CHAUX NEUVE 26:49.8 1-3- - 26:49.8 +7:16.1 387.25
49 117 49/U17 FFS2681166 2006 BOUDIN LOLA LY SC BRENOD 25:02.4 5-3- - 27:02.4 +7:28.7 395.84
50 115 50/U17 FFS2692290 2006 VASSAL LILI DA CS VILLARD 27:15.9 1-2- - 27:15.9 +7:42.2 405.04
51 101 51/U17 FFS2697035 2006 ABBADIE CLEMENCE PE SC AZUN 27:43.1 3-3- - 27:43.1 +8:09.4 423.58
52 94 52/U17 FFS2687240 2006 FERRUS MANON SA CS LA FECLAZ 27:46.1 3-2- - 27:46.1 +8:12.4 425.62
53 116 53/U17 FFS2682396 2005 GERARD GESLIN VALENTINE SA SC ARECHES 27:50.4 4-2- - 27:50.4 +8:16.7 428.55
54 98 54/U17 FFS2670765 2006 RICARD NINA SA CS KARELLIS 28:55.5 3-4- - 28:55.5 +9:21.8 472.93
55 124 55/U17 FFS2710408 2006 CHAZEAU LORIANE SA CN REVARD 32:33.8 3-2- - 32:33.8 +13:00.1 621.72
Non partants
76 FFS2674736 2006 MARSAT THAIS SA CS LA FECLAZ
77 FFS2674568 2006 BUISSON LEANDRA MB CS MEGEVE
121 FFS2691910 2006 HENRIET ANNA MJ ES SAUGETTE